createdAt,value
2023-03-07T00:00:47.447Z,15.30
2023-03-07T00:01:51.398Z,15.17
2023-03-07T00:02:54.117Z,18.40
2023-03-07T00:03:58.064Z,17.05
2023-03-07T00:05:02.180Z,16.52
2023-03-07T00:06:10.572Z,18.30
2023-03-07T00:07:13.806Z,18.63
2023-03-07T00:08:16.125Z,16.25
2023-03-07T00:09:18.569Z,16.25
2023-03-07T00:10:21.329Z,17.17
2023-03-07T00:11:23.821Z,17.73
2023-03-07T00:12:26.646Z,16.33
2023-03-07T00:13:32.843Z,16.20
2023-03-07T00:14:35.502Z,16.58
2023-03-07T00:15:40.828Z,19.77
2023-03-07T00:16:44.447Z,16.17
2023-03-07T00:17:47.100Z,16.90
2023-03-07T00:18:50.198Z,17.92
2023-03-07T00:19:52.508Z,16.08
2023-03-07T00:21:02.325Z,17.27
2023-03-07T00:22:04.727Z,15.52
2023-03-07T00:23:06.496Z,16.73
2023-03-07T00:24:10.719Z,16.65
2023-03-07T00:25:15.055Z,19.40
2023-03-07T00:26:20.275Z,16.35
2023-03-07T00:27:22.291Z,17.70
2023-03-07T00:28:24.082Z,17.85
2023-03-07T00:29:25.909Z,18.48
2023-03-07T00:30:27.838Z,16.42
2023-03-07T00:31:29.601Z,15.98
2023-03-07T00:32:32.107Z,15.77
2023-03-07T00:33:34.058Z,18.17
2023-03-07T00:34:35.868Z,18.30
2023-03-07T00:35:37.609Z,19.13
2023-03-07T00:36:39.361Z,21.73
2023-03-07T00:37:41.098Z,19.33
2023-03-07T00:38:43.313Z,15.38
2023-03-07T00:39:45.126Z,15.45
2023-03-07T00:40:46.841Z,17.67
2023-03-07T00:41:48.600Z,15.75
2023-03-07T00:42:50.326Z,13.20
2023-03-07T00:43:53.197Z,15.50
2023-03-07T00:44:54.959Z,17.23
2023-03-07T00:45:57.215Z,17.20
2023-03-07T00:46:59.435Z,16.67
2023-03-07T00:48:01.164Z,16.40
2023-03-07T00:49:03.886Z,15.73
2023-03-07T00:50:06.108Z,17.63
2023-03-07T00:51:10.027Z,17.42
2023-03-07T00:52:11.738Z,14.38
2023-03-07T00:53:13.594Z,17.38
2023-03-07T00:54:15.693Z,13.50
2023-03-07T00:55:17.553Z,15.57
2023-03-07T00:56:20.402Z,15.07
2023-03-07T00:57:22.147Z,16.67
2023-03-07T00:58:24.511Z,15.63
2023-03-07T00:59:26.277Z,15.05
2023-03-07T01:00:28.070Z,15.98
2023-03-07T01:01:29.850Z,13.75
2023-03-07T01:02:31.646Z,16.10
2023-03-07T01:03:34.785Z,17.23
2023-03-07T01:04:36.590Z,16.17
2023-03-07T01:05:41.837Z,15.52
2023-03-07T01:06:43.575Z,16.42
2023-03-07T01:07:45.298Z,14.20
2023-03-07T01:08:47.131Z,14.75
2023-03-07T01:09:51.523Z,14.48
2023-03-07T01:10:58.209Z,17.13
2023-03-07T01:11:59.938Z,16.17
2023-03-07T01:13:01.699Z,16.92
2023-03-07T01:14:05.404Z,16.73
2023-03-07T01:15:07.950Z,16.30
2023-03-07T01:16:21.571Z,18.48
2023-03-07T01:17:23.343Z,15.98
2023-03-07T01:18:25.060Z,14.30
2023-03-07T01:19:26.813Z,15.27
2023-03-07T01:20:32.948Z,13.20
2023-03-07T01:21:37.758Z,13.82
2023-03-07T01:22:39.510Z,15.95
2023-03-07T01:23:41.325Z,17.30
2023-03-07T01:24:43.033Z,19.10
2023-03-07T01:25:44.795Z,15.93
2023-03-07T01:26:46.643Z,16.25
2023-03-07T01:27:48.384Z,16.75
2023-03-07T01:28:51.588Z,17.75
2023-03-07T01:29:54.276Z,16.23
2023-03-07T01:31:00.139Z,18.20
2023-03-07T01:32:02.057Z,16.77
2023-03-07T01:33:04.832Z,15.13
2023-03-07T01:34:07.019Z,14.98
2023-03-07T01:35:09.354Z,17.65
2023-03-07T01:36:28.363Z,17.37
2023-03-07T01:37:30.191Z,18.55
2023-03-07T01:38:34.096Z,16.70
2023-03-07T01:39:35.827Z,15.43
2023-03-07T01:40:38.689Z,17.02
2023-03-07T01:41:41.316Z,15.07
2023-03-07T01:42:43.125Z,20.15
2023-03-07T01:43:44.868Z,18.33
2023-03-07T01:45:01.042Z,16.63
2023-03-07T01:46:17.877Z,18.73
2023-03-07T01:47:19.638Z,10.87
2023-03-07T01:48:21.633Z,16.60
2023-03-07T01:49:34.056Z,14.13
2023-03-07T01:50:36.268Z,19.33
2023-03-07T01:51:40.617Z,16.88
2023-03-07T01:52:47.774Z,16.73
2023-03-07T01:53:52.188Z,18.88
2023-03-07T01:55:01.969Z,16.17
2023-03-07T01:56:04.696Z,15.35
2023-03-07T01:57:06.700Z,18.73
2023-03-07T01:58:12.994Z,16.07
2023-03-07T01:59:20.047Z,17.35
2023-03-07T02:00:25.573Z,16.40
2023-03-07T02:01:28.557Z,15.95
2023-03-07T02:02:30.387Z,17.75
2023-03-07T02:03:41.691Z,16.58
2023-03-07T02:04:58.722Z,14.85
2023-03-07T02:06:05.296Z,17.75
2023-03-07T02:07:10.050Z,15.15
2023-03-07T02:08:14.110Z,18.52
2023-03-07T02:09:19.443Z,16.17
2023-03-07T02:10:23.472Z,17.27
2023-03-07T02:11:26.064Z,17.95
2023-03-07T02:12:28.065Z,18.25
2023-03-07T02:13:29.824Z,15.35
2023-03-07T02:14:31.528Z,23.25
2023-03-07T02:15:36.409Z,14.80
2023-03-07T02:16:39.757Z,20.55
2023-03-07T02:17:42.981Z,14.40
2023-03-07T02:18:47.813Z,16.95
2023-03-07T02:20:01.926Z,19.17
2023-03-07T02:21:36.520Z,14.95
2023-03-07T02:22:40.634Z,16.27
2023-03-07T02:24:03.640Z,16.98
2023-03-07T02:25:15.274Z,16.73
2023-03-07T02:26:51.113Z,14.70
2023-03-07T02:27:55.445Z,17.60
2023-03-07T02:28:58.928Z,16.27
2023-03-07T02:30:00.654Z,16.40
2023-03-07T02:31:07.480Z,18.10
2023-03-07T02:32:10.014Z,16.87
2023-03-07T02:33:11.826Z,18.13
2023-03-07T02:34:21.047Z,17.17
2023-03-07T02:35:24.866Z,17.70
2023-03-07T02:36:32.413Z,16.60
2023-03-07T02:37:38.091Z,16.25
2023-03-07T02:38:42.942Z,17.15
2023-03-07T02:39:47.997Z,19.20
2023-03-07T02:40:52.261Z,17.75
2023-03-07T02:41:56.555Z,16.25
2023-03-07T02:43:05.921Z,16.33
2023-03-07T02:44:07.709Z,15.70
2023-03-07T02:45:13.114Z,17.85
2023-03-07T02:46:14.892Z,15.80
2023-03-07T02:47:16.640Z,14.50
2023-03-07T02:48:18.446Z,15.77
2023-03-07T02:49:20.222Z,17.15
2023-03-07T02:50:21.982Z,16.20
2023-03-07T02:51:23.781Z,17.02
2023-03-07T02:52:27.900Z,15.55
2023-03-07T02:53:29.741Z,14.77
2023-03-07T02:54:31.574Z,18.38
2023-03-07T02:55:33.760Z,15.55
2023-03-07T02:56:35.638Z,16.33
2023-03-07T02:57:37.408Z,17.13
2023-03-07T02:58:39.201Z,17.13
2023-03-07T02:59:41.243Z,13.48
2023-03-07T03:00:42.978Z,19.73
2023-03-07T03:01:44.807Z,18.38
2023-03-07T03:02:46.705Z,17.10
2023-03-07T03:03:48.440Z,14.43
2023-03-07T03:04:50.286Z,15.77
2023-03-07T03:05:52.068Z,15.52
2023-03-07T03:06:53.833Z,16.92
2023-03-07T03:07:55.697Z,16.55
2023-03-07T03:08:57.411Z,14.82
2023-03-07T03:09:59.140Z,16.30
2023-03-07T03:11:00.921Z,14.18
2023-03-07T03:12:02.660Z,16.42
2023-03-07T03:13:04.711Z,15.82
2023-03-07T03:14:06.454Z,18.10
2023-03-07T03:15:08.896Z,14.27
2023-03-07T03:16:10.702Z,14.45
2023-03-07T03:17:12.443Z,16.98
2023-03-07T03:18:14.359Z,16.27
2023-03-07T03:19:16.150Z,16.40
2023-03-07T03:20:19.256Z,17.00
2023-03-07T03:21:21.264Z,14.48
2023-03-07T03:22:23.004Z,15.65
2023-03-07T03:23:27.627Z,13.77
2023-03-07T03:24:29.400Z,15.30
2023-03-07T03:25:31.119Z,19.88
2023-03-07T03:26:33.528Z,14.75
2023-03-07T03:27:35.803Z,16.38
2023-03-07T03:28:38.948Z,14.77
2023-03-07T03:29:40.694Z,13.82
2023-03-07T03:30:42.449Z,13.85
2023-03-07T03:31:45.084Z,13.75
2023-03-07T03:32:47.191Z,14.85
2023-03-07T03:33:50.978Z,14.75
2023-03-07T03:34:52.730Z,15.87
2023-03-07T03:35:55.266Z,15.10
2023-03-07T03:36:57.256Z,12.65
2023-03-07T03:37:59.010Z,14.40
2023-03-07T03:39:00.839Z,13.10
2023-03-07T03:40:06.391Z,12.70
2023-03-07T03:41:11.313Z,13.23
2023-03-07T03:42:13.349Z,18.17
2023-03-07T03:43:15.439Z,13.63
2023-03-07T03:44:17.236Z,12.82
2023-03-07T03:45:19.494Z,15.20
2023-03-07T03:46:21.305Z,13.45
2023-03-07T03:47:23.144Z,14.25
2023-03-07T03:48:24.926Z,12.23
2023-03-07T03:49:27.317Z,13.57
2023-03-07T03:50:29.111Z,13.45
2023-03-07T03:51:31.309Z,12.85
2023-03-07T03:52:34.991Z,13.88
2023-03-07T03:53:39.010Z,13.27
2023-03-07T03:54:40.799Z,13.00
2023-03-07T03:55:42.562Z,14.70
2023-03-07T03:56:44.406Z,10.80
2023-03-07T03:57:46.140Z,13.20
2023-03-07T03:58:49.662Z,13.50
2023-03-07T03:59:51.623Z,12.88
2023-03-07T04:00:53.370Z,13.93
2023-03-07T04:01:55.490Z,13.98
2023-03-07T04:02:57.459Z,14.93
2023-03-07T04:04:00.122Z,16.42
2023-03-07T04:05:01.969Z,14.68
2023-03-07T04:06:05.794Z,16.30
2023-03-07T04:07:07.537Z,15.95
2023-03-07T04:08:10.200Z,12.00
2023-03-07T04:09:11.976Z,11.18
2023-03-07T04:10:13.968Z,14.30
2023-03-07T04:11:15.812Z,13.32
2023-03-07T04:12:17.632Z,12.13
2023-03-07T04:13:19.375Z,12.63
2023-03-07T04:14:21.173Z,12.75
2023-03-07T04:15:22.898Z,13.23
2023-03-07T04:16:24.782Z,13.07
2023-03-07T04:17:26.587Z,11.07
2023-03-07T04:18:28.339Z,13.10
2023-03-07T04:19:30.236Z,12.75
2023-03-07T04:20:31.977Z,13.57
2023-03-07T04:21:33.757Z,10.85
2023-03-07T04:22:35.505Z,12.25
2023-03-07T04:23:37.671Z,13.50
2023-03-07T04:24:39.462Z,11.90
2023-03-07T04:25:41.308Z,11.63
2023-03-07T04:26:43.107Z,11.10
2023-03-07T04:27:44.913Z,12.80
2023-03-07T04:28:46.784Z,12.15
2023-03-07T04:29:48.593Z,11.43
2023-03-07T04:30:50.506Z,10.90
2023-03-07T04:31:52.363Z,11.77
2023-03-07T04:32:54.372Z,11.63
2023-03-07T04:33:57.491Z,13.27
2023-03-07T04:34:59.231Z,11.50
2023-03-07T04:36:01.030Z,12.57
2023-03-07T04:37:02.806Z,13.50
2023-03-07T04:38:04.563Z,14.57
2023-03-07T04:39:06.395Z,12.93
2023-03-07T04:40:08.969Z,12.73
2023-03-07T04:41:17.567Z,11.70
2023-03-07T04:42:19.288Z,14.70
2023-03-07T04:43:21.802Z,11.50
2023-03-07T04:44:23.729Z,13.55
2023-03-07T04:45:25.531Z,11.30
2023-03-07T04:46:28.177Z,11.90
2023-03-07T04:47:29.978Z,9.40
2023-03-07T04:48:31.825Z,13.50
2023-03-07T04:49:33.635Z,11.85
2023-03-07T04:50:35.393Z,13.27
2023-03-07T04:51:37.106Z,15.52
2023-03-07T04:52:38.925Z,11.98
2023-03-07T04:53:40.689Z,11.15
2023-03-07T04:54:42.508Z,12.18
2023-03-07T04:55:44.551Z,12.23
2023-03-07T04:56:46.315Z,10.88
2023-03-07T04:57:48.093Z,10.77
2023-03-07T04:58:49.960Z,13.10
2023-03-07T04:59:51.745Z,10.63
2023-03-07T05:00:53.609Z,12.65
2023-03-07T05:01:55.357Z,12.45
2023-03-07T05:02:58.674Z,11.73
2023-03-07T05:04:00.385Z,11.68
2023-03-07T05:05:02.280Z,9.65
2023-03-07T05:06:06.847Z,13.85
2023-03-07T05:07:08.976Z,9.52
2023-03-07T05:08:10.750Z,12.30
2023-03-07T05:09:12.508Z,17.13
2023-03-07T05:10:14.285Z,12.55
2023-03-07T05:11:16.355Z,12.73
2023-03-07T05:12:18.175Z,14.25
2023-03-07T05:13:19.900Z,15.48
2023-03-07T05:14:21.709Z,12.05
2023-03-07T05:15:23.518Z,13.02
2023-03-07T05:16:25.289Z,14.32
2023-03-07T05:17:27.515Z,12.20
2023-03-07T05:18:29.503Z,9.13
2023-03-07T05:19:31.846Z,11.75
2023-03-07T05:20:33.896Z,13.05
2023-03-07T05:21:35.637Z,13.38
2023-03-07T05:22:37.347Z,8.43
2023-03-07T05:23:39.165Z,11.15
2023-03-07T05:24:40.992Z,13.18
2023-03-07T05:25:43.639Z,14.75
2023-03-07T05:26:45.437Z,10.32
2023-03-07T05:27:47.209Z,11.23
2023-03-07T05:28:49.443Z,11.03
2023-03-07T05:29:51.140Z,14.75
2023-03-07T05:30:53.139Z,12.73
2023-03-07T05:31:54.995Z,11.15
2023-03-07T05:32:56.811Z,12.35
2023-03-07T05:33:58.534Z,12.13
2023-03-07T05:35:00.353Z,12.32
2023-03-07T05:36:03.792Z,12.60
2023-03-07T05:37:05.648Z,13.38
2023-03-07T05:38:07.789Z,13.10
2023-03-07T05:39:09.936Z,11.77
2023-03-07T05:40:12.735Z,15.27
2023-03-07T05:41:14.508Z,11.00
2023-03-07T05:42:16.260Z,11.90
2023-03-07T05:43:17.971Z,14.07
2023-03-07T05:44:20.178Z,13.75
2023-03-07T05:45:22.336Z,12.18
2023-03-07T05:46:24.561Z,12.60
2023-03-07T05:47:26.373Z,11.63
2023-03-07T05:48:28.142Z,10.05
2023-03-07T05:49:29.907Z,13.27
2023-03-07T05:50:31.999Z,11.32
2023-03-07T05:51:33.827Z,10.60
2023-03-07T05:52:35.700Z,12.38
2023-03-07T05:53:37.543Z,12.98
2023-03-07T05:54:39.288Z,11.75
2023-03-07T05:55:41.041Z,10.80
2023-03-07T05:56:43.323Z,10.27
2023-03-07T05:57:45.070Z,8.95
2023-03-07T05:58:46.828Z,12.15
2023-03-07T05:59:48.648Z,12.47
2023-03-07T06:00:50.432Z,13.07
2023-03-07T06:01:52.182Z,12.32
2023-03-07T06:02:54.170Z,11.57
2023-03-07T06:03:55.958Z,12.80
2023-03-07T06:04:57.709Z,11.65
2023-03-07T06:05:59.464Z,11.13
2023-03-07T06:07:01.247Z,12.25
2023-03-07T06:08:03.838Z,12.88
2023-03-07T06:09:05.776Z,11.88
2023-03-07T06:10:08.399Z,10.90
2023-03-07T06:11:10.966Z,8.88
2023-03-07T06:12:12.836Z,14.27
2023-03-07T06:13:17.814Z,10.48
2023-03-07T06:14:20.572Z,13.00
2023-03-07T06:15:24.718Z,11.25
2023-03-07T06:16:27.120Z,9.07
2023-03-07T06:17:29.329Z,9.15
2023-03-07T06:18:31.257Z,10.18
2023-03-07T06:19:34.032Z,11.48
2023-03-07T06:20:35.770Z,12.03
2023-03-07T06:21:37.528Z,10.13
2023-03-07T06:22:39.434Z,9.10
2023-03-07T06:23:41.372Z,11.55
2023-03-07T06:24:43.786Z,12.82
2023-03-07T06:25:45.580Z,10.10
2023-03-07T06:26:47.349Z,11.57
2023-03-07T06:27:49.458Z,12.43
2023-03-07T06:28:51.272Z,10.10
2023-03-07T06:29:53.285Z,7.45
2023-03-07T06:30:55.103Z,11.40
2023-03-07T06:31:56.877Z,8.10
2023-03-07T06:32:58.622Z,10.90
2023-03-07T06:34:00.378Z,9.23
2023-03-07T06:35:02.146Z,15.00
2023-03-07T06:36:08.613Z,14.30
2023-03-07T06:37:10.472Z,11.80
2023-03-07T06:38:14.565Z,8.05
2023-03-07T06:39:21.169Z,12.57
2023-03-07T06:40:23.089Z,9.65
2023-03-07T06:41:25.102Z,12.93
2023-03-07T06:42:26.883Z,10.90
2023-03-07T06:43:28.961Z,10.98
2023-03-07T06:44:30.774Z,11.38
2023-03-07T06:45:33.146Z,9.68
2023-03-07T06:46:34.977Z,10.10
2023-03-07T06:47:36.707Z,12.15
2023-03-07T06:48:38.454Z,8.57
2023-03-07T06:49:40.188Z,8.57
2023-03-07T06:50:41.920Z,11.68
2023-03-07T06:51:43.668Z,11.27
2023-03-07T06:52:45.517Z,13.43
2023-03-07T06:53:47.243Z,9.38
2023-03-07T06:54:49.091Z,13.82
2023-03-07T06:55:51.999Z,13.13
2023-03-07T06:56:55.084Z,11.60
2023-03-07T06:57:56.827Z,8.48
2023-03-07T06:58:58.644Z,9.88
2023-03-07T07:00:01.482Z,9.68
2023-03-07T07:01:03.239Z,11.77
2023-03-07T07:02:05.585Z,8.00
2023-03-07T07:03:07.475Z,10.20
2023-03-07T07:04:11.436Z,10.00
2023-03-07T07:05:13.174Z,10.65
2023-03-07T07:06:15.448Z,11.63
2023-03-07T07:07:17.256Z,9.73
2023-03-07T07:08:18.990Z,9.35
2023-03-07T07:09:20.832Z,8.18
2023-03-07T07:10:22.597Z,11.77
2023-03-07T07:11:25.508Z,10.50
2023-03-07T07:12:27.304Z,9.33
2023-03-07T07:13:29.083Z,10.65
2023-03-07T07:14:30.849Z,8.82
2023-03-07T07:15:32.657Z,10.45
2023-03-07T07:16:36.330Z,8.15
2023-03-07T07:17:40.829Z,11.35
2023-03-07T07:18:42.657Z,10.70
2023-03-07T07:19:44.400Z,9.00
2023-03-07T07:20:46.160Z,8.68
2023-03-07T07:21:47.922Z,8.23
2023-03-07T07:22:49.694Z,7.90
2023-03-07T07:23:51.413Z,7.85
2023-03-07T07:24:53.191Z,7.13
2023-03-07T07:25:55.290Z,7.00
2023-03-07T07:26:57.049Z,7.53
2023-03-07T07:27:58.757Z,7.25
2023-03-07T07:29:00.596Z,6.78
2023-03-07T07:30:06.240Z,9.73
2023-03-07T07:31:07.989Z,7.65
2023-03-07T07:32:09.948Z,8.45
2023-03-07T07:33:11.932Z,7.47
2023-03-07T07:34:13.783Z,7.72
2023-03-07T07:35:15.591Z,7.20
2023-03-07T07:36:17.328Z,7.43
2023-03-07T07:37:19.079Z,6.72
2023-03-07T07:38:20.794Z,6.68
2023-03-07T07:39:23.395Z,7.97
2023-03-07T07:40:25.156Z,7.47
2023-03-07T07:41:26.952Z,7.70
2023-03-07T07:42:30.227Z,8.05
2023-03-07T07:43:33.605Z,8.33
2023-03-07T07:44:35.480Z,7.55
2023-03-07T07:45:37.750Z,7.75
2023-03-07T07:46:39.560Z,7.68
2023-03-07T07:47:41.326Z,6.15
2023-03-07T07:48:43.035Z,5.30
2023-03-07T07:49:44.764Z,7.57
2023-03-07T07:50:47.060Z,5.97
2023-03-07T07:51:48.795Z,7.32
2023-03-07T07:52:52.697Z,8.38
2023-03-07T07:53:54.587Z,8.10
2023-03-07T07:54:56.285Z,6.03
2023-03-07T07:55:58.434Z,7.65
2023-03-07T07:57:00.125Z,7.60
2023-03-07T07:58:02.128Z,7.45
2023-03-07T07:59:04.210Z,6.20
2023-03-07T08:00:06.936Z,7.07
2023-03-07T08:01:16.363Z,7.78
2023-03-07T08:02:18.088Z,7.15
2023-03-07T08:03:19.871Z,6.68
2023-03-07T08:04:21.660Z,6.00
2023-03-07T08:05:23.425Z,6.90
2023-03-07T08:06:27.164Z,7.00
2023-03-07T08:07:28.900Z,5.95
2023-03-07T08:08:30.666Z,4.50
2023-03-07T08:09:32.367Z,7.47
2023-03-07T08:10:35.544Z,6.45
2023-03-07T08:11:37.248Z,6.70
2023-03-07T08:12:38.967Z,7.00
2023-03-07T08:13:40.700Z,5.85
2023-03-07T08:14:42.477Z,7.40
2023-03-07T08:15:44.367Z,5.82
2023-03-07T08:16:46.070Z,7.38
2023-03-07T08:17:49.265Z,5.88
2023-03-07T08:18:55.979Z,7.00
2023-03-07T08:20:01.783Z,6.22
2023-03-07T08:21:04.200Z,4.57
2023-03-07T08:22:05.906Z,4.65
2023-03-07T08:23:07.935Z,4.90
2023-03-07T08:24:09.650Z,6.50
2023-03-07T08:25:17.950Z,7.40
2023-03-07T08:26:19.855Z,4.10
2023-03-07T08:27:21.593Z,4.07
2023-03-07T08:28:23.277Z,5.22
2023-03-07T08:29:24.994Z,4.25
2023-03-07T08:30:28.943Z,5.55
2023-03-07T08:31:30.749Z,5.10
2023-03-07T08:32:32.597Z,7.53
2023-03-07T08:33:34.344Z,4.88
2023-03-07T08:34:36.009Z,5.20
2023-03-07T08:35:40.025Z,6.63
2023-03-07T08:36:41.838Z,5.72
2023-03-07T08:37:43.579Z,4.43
2023-03-07T08:38:51.541Z,4.80
2023-03-07T08:39:53.402Z,5.85
2023-03-07T08:40:58.906Z,5.03
2023-03-07T08:42:00.866Z,5.90
2023-03-07T08:43:02.752Z,6.53
2023-03-07T08:44:04.631Z,5.90
2023-03-07T08:45:06.709Z,5.63
2023-03-07T08:46:08.538Z,4.43
2023-03-07T08:47:12.119Z,4.75
2023-03-07T08:48:13.887Z,4.85
2023-03-07T08:49:15.642Z,5.15
2023-03-07T08:50:17.598Z,4.35
2023-03-07T08:51:19.605Z,3.55
2023-03-07T08:52:21.295Z,4.97
2023-03-07T08:53:23.507Z,5.38
2023-03-07T08:54:25.264Z,4.78
2023-03-07T08:55:26.966Z,5.30
2023-03-07T08:56:28.719Z,4.33
2023-03-07T08:57:30.508Z,6.75
2023-03-07T08:58:32.205Z,3.97
2023-03-07T08:59:33.933Z,6.20
2023-03-07T09:00:36.782Z,5.70
2023-03-07T09:01:40.981Z,4.88
2023-03-07T09:02:43.155Z,5.15
2023-03-07T09:03:45.219Z,5.40
2023-03-07T09:04:47.507Z,4.65
2023-03-07T09:05:49.215Z,3.88
2023-03-07T09:06:51.146Z,4.40
2023-03-07T09:07:52.849Z,4.00
2023-03-07T09:08:54.573Z,4.40
2023-03-07T09:09:56.266Z,4.90
2023-03-07T09:11:03.602Z,3.17
2023-03-07T09:12:05.599Z,5.00
2023-03-07T09:13:07.332Z,4.35
2023-03-07T09:14:09.150Z,3.05
2023-03-07T09:15:11.189Z,2.97
2023-03-07T09:16:13.048Z,5.07
2023-03-07T09:17:15.958Z,4.70
2023-03-07T09:18:17.737Z,4.30
2023-03-07T09:19:19.521Z,3.33
2023-03-07T09:20:21.295Z,5.38
2023-03-07T09:21:23.570Z,3.33
2023-03-07T09:22:26.656Z,4.05
2023-03-07T09:23:28.409Z,3.85
2023-03-07T09:24:30.493Z,5.20
2023-03-07T09:25:32.403Z,4.15
2023-03-07T09:26:34.397Z,4.55
2023-03-07T09:27:36.375Z,4.20
2023-03-07T09:28:38.087Z,4.50
2023-03-07T09:29:39.879Z,3.60
2023-03-07T09:30:41.620Z,4.03
2023-03-07T09:31:44.236Z,4.63
2023-03-07T09:32:46.158Z,3.65
2023-03-07T09:33:47.927Z,3.08
2023-03-07T09:34:49.621Z,5.93
2023-03-07T09:35:51.436Z,3.55
2023-03-07T09:36:53.214Z,5.50
2023-03-07T09:37:54.947Z,4.93
2023-03-07T09:38:58.200Z,4.05
2023-03-07T09:40:00.000Z,3.58
2023-03-07T09:41:17.461Z,5.00
2023-03-07T09:42:52.022Z,5.22
2023-03-07T09:44:20.939Z,3.60
2023-03-07T09:45:46.698Z,4.05
2023-03-07T09:47:10.590Z,3.35
2023-03-07T09:48:39.962Z,5.43
2023-03-07T09:49:53.327Z,4.22
2023-03-07T09:51:11.359Z,4.00
2023-03-07T09:52:26.035Z,4.63
2023-03-07T09:53:42.302Z,4.38
2023-03-07T09:55:09.802Z,4.15
2023-03-07T09:56:40.708Z,4.63
2023-03-07T09:57:55.227Z,3.85
2023-03-07T09:59:24.369Z,5.15
2023-03-07T10:00:48.294Z,7.25
2023-03-07T10:01:55.463Z,3.30
2023-03-07T10:03:21.742Z,6.90
2023-03-07T10:04:40.565Z,7.67
2023-03-07T10:05:47.682Z,6.65
2023-03-07T10:06:58.021Z,6.95
2023-03-07T10:08:01.629Z,5.93
2023-03-07T10:09:05.494Z,4.43
2023-03-07T10:10:16.782Z,5.57
2023-03-07T10:11:34.752Z,5.60
2023-03-07T10:12:49.713Z,5.45
2023-03-07T10:14:24.422Z,5.22
2023-03-07T10:15:47.592Z,4.72
2023-03-07T10:17:15.248Z,5.37
2023-03-07T10:18:38.120Z,6.10
2023-03-07T10:19:57.222Z,3.90
2023-03-07T10:21:04.527Z,6.10
2023-03-07T10:22:33.887Z,5.38
2023-03-07T10:23:41.716Z,6.63
2023-03-07T10:25:02.345Z,5.55
2023-03-07T10:26:13.031Z,7.65
2023-03-07T10:27:15.858Z,4.97
2023-03-07T10:28:48.250Z,3.42
2023-03-07T10:29:52.770Z,5.60
2023-03-07T10:31:23.617Z,5.07
2023-03-07T10:32:43.582Z,5.85
2023-03-07T10:33:49.979Z,5.57
2023-03-07T10:35:11.947Z,5.03
2023-03-07T10:36:41.543Z,6.28
2023-03-07T10:37:52.168Z,6.82
2023-03-07T10:39:03.242Z,6.13
2023-03-07T10:40:05.338Z,5.57
2023-03-07T10:41:21.350Z,5.32
2023-03-07T10:42:25.278Z,5.30
2023-03-07T10:43:32.205Z,4.30
2023-03-07T10:44:34.667Z,7.50
2023-03-07T10:45:37.933Z,4.88
2023-03-07T10:46:47.073Z,5.10
2023-03-07T10:48:06.030Z,5.72
2023-03-07T10:49:10.559Z,5.15
2023-03-07T10:50:38.187Z,6.13
2023-03-07T10:52:01.807Z,5.88
2023-03-07T10:53:09.157Z,4.53
2023-03-07T10:54:24.179Z,14.50
2023-03-07T10:55:35.066Z,5.30
2023-03-07T10:56:36.960Z,4.38
2023-03-07T10:57:38.684Z,4.70
2023-03-07T10:58:58.438Z,4.45
2023-03-07T11:00:14.221Z,4.80
2023-03-07T11:01:19.670Z,5.15
2023-03-07T11:02:35.875Z,3.42
2023-03-07T11:04:05.019Z,6.32
2023-03-07T11:05:33.264Z,5.05
2023-03-07T11:06:52.808Z,7.40
2023-03-07T11:07:54.577Z,5.93
2023-03-07T11:09:07.354Z,5.78
2023-03-07T11:10:40.569Z,5.32
2023-03-07T11:11:49.135Z,5.38
2023-03-07T11:12:51.486Z,5.90
2023-03-07T11:14:13.380Z,5.43
2023-03-07T11:15:24.190Z,4.97
2023-03-07T11:16:26.058Z,9.27
2023-03-07T11:17:48.623Z,5.47
2023-03-07T11:18:50.362Z,5.00
2023-03-07T11:19:54.166Z,6.07
2023-03-07T11:20:56.585Z,7.85
2023-03-07T11:21:59.731Z,4.30
2023-03-07T11:23:23.517Z,5.22
2023-03-07T11:24:28.467Z,5.68
2023-03-07T11:25:35.996Z,5.55
2023-03-07T11:26:41.209Z,6.88
2023-03-07T11:27:46.046Z,3.95
2023-03-07T11:28:47.754Z,5.80
2023-03-07T11:30:18.886Z,4.10
2023-03-07T11:31:48.150Z,9.10
2023-03-07T11:33:13.190Z,5.57
2023-03-07T11:34:24.741Z,6.60
2023-03-07T11:35:52.419Z,4.60
2023-03-07T11:37:22.612Z,6.50
2023-03-07T11:38:50.275Z,4.70
2023-03-07T11:40:03.826Z,8.43
2023-03-07T11:41:30.762Z,4.82
2023-03-07T11:42:37.274Z,5.75
2023-03-07T11:43:59.971Z,4.67
2023-03-07T11:45:43.868Z,5.80
2023-03-07T11:47:12.433Z,6.50
2023-03-07T11:48:46.152Z,3.65
2023-03-07T11:50:04.204Z,5.18
2023-03-07T11:51:11.887Z,5.45
2023-03-07T11:52:14.222Z,5.10
2023-03-07T11:53:37.331Z,4.88
2023-03-07T11:55:17.137Z,5.07
2023-03-07T11:56:26.132Z,6.10
2023-03-07T11:58:01.713Z,4.93
2023-03-07T11:59:22.160Z,6.90
2023-03-07T12:00:42.835Z,4.40
2023-03-07T12:02:02.645Z,4.75
2023-03-07T12:03:13.315Z,4.53
2023-03-07T12:04:35.928Z,5.30
2023-03-07T12:06:06.399Z,4.82
2023-03-07T12:07:30.579Z,4.82
2023-03-07T12:08:37.910Z,6.45
2023-03-07T12:09:54.590Z,5.40
2023-03-07T12:10:59.424Z,6.47
2023-03-07T12:12:22.231Z,5.85
2023-03-07T12:13:49.818Z,4.93
2023-03-07T12:15:22.712Z,6.97
2023-03-07T12:16:42.181Z,5.38
2023-03-07T12:17:46.767Z,6.65
2023-03-07T12:19:23.485Z,7.40
2023-03-07T12:20:28.066Z,6.43
2023-03-07T12:21:58.379Z,4.43
2023-03-07T12:23:22.316Z,7.35
2023-03-07T12:24:30.934Z,4.80
2023-03-07T12:25:39.551Z,6.53
2023-03-07T12:27:10.241Z,5.30
2023-03-07T12:28:24.758Z,6.88
2023-03-07T12:29:47.754Z,4.50
2023-03-07T12:31:11.886Z,7.78
2023-03-07T12:32:19.611Z,6.22
2023-03-07T12:33:46.247Z,5.40
2023-03-07T12:34:59.126Z,6.68
2023-03-07T12:36:15.822Z,4.22
2023-03-07T12:37:23.354Z,4.03
2023-03-07T12:38:28.089Z,6.90
2023-03-07T12:39:44.597Z,5.22
2023-03-07T12:40:51.351Z,6.63
2023-03-07T12:42:31.533Z,4.40
2023-03-07T12:43:37.527Z,5.72
2023-03-07T12:44:51.210Z,5.18
2023-03-07T12:46:01.839Z,4.85
2023-03-07T12:47:43.363Z,4.00
2023-03-07T12:48:56.707Z,5.95
2023-03-07T12:50:26.498Z,4.17
2023-03-07T12:51:37.981Z,5.20
2023-03-07T12:52:50.073Z,4.93
2023-03-07T12:53:57.679Z,5.50
2023-03-07T12:55:16.402Z,5.53
2023-03-07T12:56:30.413Z,10.73
2023-03-07T12:57:37.431Z,6.07
2023-03-07T12:58:47.295Z,3.97
2023-03-07T12:59:51.432Z,5.82
2023-03-07T13:01:07.284Z,8.07
2023-03-07T13:02:27.447Z,4.47
2023-03-07T13:03:41.541Z,3.50
2023-03-07T13:04:43.334Z,4.88
2023-03-07T13:05:45.539Z,4.55
2023-03-07T13:06:48.070Z,9.13
2023-03-07T13:07:50.362Z,5.28
2023-03-07T13:08:55.671Z,4.78
2023-03-07T13:09:59.358Z,5.13
2023-03-07T13:11:01.157Z,7.03
2023-03-07T13:12:22.485Z,5.63
2023-03-07T13:13:43.308Z,5.60
2023-03-07T13:14:52.509Z,5.07
2023-03-07T13:16:05.933Z,4.95
2023-03-07T13:17:12.182Z,5.90
2023-03-07T13:18:29.447Z,6.63
2023-03-07T13:19:31.160Z,8.20
2023-03-07T13:20:40.785Z,4.47
2023-03-07T13:21:42.699Z,6.43
2023-03-07T13:22:44.446Z,5.43
2023-03-07T13:23:46.224Z,8.25
2023-03-07T13:24:49.720Z,5.40
2023-03-07T13:26:00.205Z,5.20
2023-03-07T13:27:04.933Z,5.32
2023-03-07T13:28:37.215Z,6.95
2023-03-07T13:30:13.435Z,7.65
2023-03-07T13:31:21.231Z,4.80
2023-03-07T13:32:51.022Z,5.60
2023-03-07T13:33:53.155Z,10.57
2023-03-07T13:34:54.935Z,7.45
2023-03-07T13:35:59.114Z,6.75
2023-03-07T13:37:39.268Z,5.47
2023-03-07T13:38:40.919Z,5.97
2023-03-07T13:40:01.066Z,5.18
2023-03-07T13:41:04.632Z,4.97
2023-03-07T13:42:44.162Z,7.32
2023-03-07T13:43:45.845Z,4.95
2023-03-07T13:44:47.566Z,4.95
2023-03-07T13:46:26.104Z,6.50
2023-03-07T13:47:44.640Z,7.00
2023-03-07T13:48:49.100Z,5.85
2023-03-07T13:49:51.036Z,4.93
2023-03-07T13:50:52.893Z,9.00
2023-03-07T13:52:17.614Z,5.03
2023-03-07T13:53:36.002Z,6.60
2023-03-07T13:54:42.590Z,6.00
2023-03-07T13:55:51.356Z,9.77
2023-03-07T13:56:53.112Z,6.25
2023-03-07T13:57:56.749Z,5.35
2023-03-07T13:59:13.817Z,7.05
2023-03-07T14:00:24.809Z,5.75
2023-03-07T14:01:44.197Z,9.80
2023-03-07T14:02:46.073Z,4.97
2023-03-07T14:04:26.650Z,5.65
2023-03-07T14:05:35.132Z,5.50
2023-03-07T14:06:40.271Z,5.80
2023-03-07T14:07:42.925Z,6.15
2023-03-07T14:08:46.575Z,5.50
2023-03-07T14:09:50.860Z,3.17
2023-03-07T14:10:53.702Z,5.50
2023-03-07T14:12:22.080Z,6.25
2023-03-07T14:13:43.751Z,5.83
2023-03-07T14:15:13.510Z,4.30
2023-03-07T14:16:47.516Z,4.22
2023-03-07T14:18:10.856Z,5.90
2023-03-07T14:19:54.010Z,5.28
2023-03-07T14:21:06.388Z,6.22
2023-03-07T14:22:23.916Z,5.10
2023-03-07T14:23:34.928Z,5.40
2023-03-07T14:25:06.699Z,6.57
2023-03-07T14:26:21.881Z,4.55
2023-03-07T14:27:23.672Z,6.67
2023-03-07T14:28:27.862Z,3.50
2023-03-07T14:29:30.882Z,4.35
2023-03-07T14:30:34.249Z,5.55
2023-03-07T14:31:41.548Z,3.92